GMFF

Saïss Airport

Fes, Morocco
METAR GMFF 211500Z 26009KT 9999 BKN012 BKN020 16/14 Q1012 NOSIG
Observed Flight Rules
Apr-21 @ 15:00 UTC (38 minutes ago) Marginal Visual Flight Rules
Wind Visibility Clouds
260° at 9 knots 10,000+ meters
  • Broken at 1,200' AGL
  • Broken at 2,000' AGL
Temperatures Readings
Current 16°C / 61°F
Dewpoint 14°C / 57°F
Humidity 88%
Altimeter 29.88" Hg
Pressure 1012 hPa
Elevation 579
METAR GMFF 211500Z 26009KT 9999 BKN012 BKN020 16/14 Q1012 NOSIG
Observed Flight Rules
Apr-21 @ 15:00 UTC
(38 minutes ago)
MVFR
Wind Visibility
260° at 9 knots 10,000+ meters
Clouds
  • Broken at 1,200' AGL
  • Broken at 2,000' AGL
Temperature Dewpoint
16°C / 61°F 14°C / 57°F
Humidity Altimeter Pressure
88% 29.88" Hg 1012 hPa